sensor_id;sensor_type;location;lat;lon;timestamp;P1;durP1;ratioP1;P2;durP2;ratioP2
29422;SDS011;16399;51.686;8.684;2022-12-01T00:02:02;32.78;;;14.45;;
29422;SDS011;16399;51.686;8.684;2022-12-01T00:05:04;40.25;;;16.17;;
29422;SDS011;16399;51.686;8.684;2022-12-01T00:08:06;37.85;;;15.80;;
29422;SDS011;16399;51.686;8.684;2022-12-01T00:11:09;36.88;;;15.05;;
29422;SDS011;16399;51.686;8.684;2022-12-01T00:14:12;39.95;;;15.15;;
29422;SDS011;16399;51.686;8.684;2022-12-01T00:17:15;36.23;;;14.58;;
29422;SDS011;16399;51.686;8.684;2022-12-01T00:20:18;37.38;;;14.38;;
29422;SDS011;16399;51.686;8.684;2022-12-01T00:23:20;34.20;;;13.88;;
29422;SDS011;16399;51.686;8.684;2022-12-01T00:26:23;32.35;;;13.80;;
29422;SDS011;16399;51.686;8.684;2022-12-01T00:29:27;37.98;;;14.50;;
29422;SDS011;16399;51.686;8.684;2022-12-01T00:32:29;29.85;;;13.38;;
29422;SDS011;16399;51.686;8.684;2022-12-01T00:35:32;30.90;;;12.33;;
29422;SDS011;16399;51.686;8.684;2022-12-01T00:38:34;31.17;;;13.90;;
29422;SDS011;16399;51.686;8.684;2022-12-01T00:41:37;32.13;;;12.80;;
29422;SDS011;16399;51.686;8.684;2022-12-01T00:44:39;32.13;;;13.20;;
29422;SDS011;16399;51.686;8.684;2022-12-01T00:47:41;29.52;;;12.80;;
29422;SDS011;16399;51.686;8.684;2022-12-01T00:50:44;34.95;;;13.15;;
29422;SDS011;16399;51.686;8.684;2022-12-01T00:53:46;36.73;;;14.03;;
29422;SDS011;16399;51.686;8.684;2022-12-01T00:56:48;30.62;;;13.58;;
29422;SDS011;16399;51.686;8.684;2022-12-01T00:59:51;31.17;;;13.75;;
29422;SDS011;16399;51.686;8.684;2022-12-01T01:02:53;29.20;;;12.75;;
29422;SDS011;16399;51.686;8.684;2022-12-01T01:05:55;29.02;;;13.03;;
29422;SDS011;16399;51.686;8.684;2022-12-01T01:08:59;28.10;;;12.60;;
29422;SDS011;16399;51.686;8.684;2022-12-01T01:12:02;30.27;;;12.28;;
29422;SDS011;16399;51.686;8.684;2022-12-01T01:15:05;34.58;;;14.38;;
29422;SDS011;16399;51.686;8.684;2022-12-01T01:18:09;28.90;;;12.70;;
29422;SDS011;16399;51.686;8.684;2022-12-01T01:21:13;26.97;;;11.87;;
29422;SDS011;16399;51.686;8.684;2022-12-01T01:24:17;29.42;;;12.00;;
29422;SDS011;16399;51.686;8.684;2022-12-01T01:27:19;28.57;;;12.65;;
29422;SDS011;16399;51.686;8.684;2022-12-01T01:30:21;31.93;;;11.97;;
29422;SDS011;16399;51.686;8.684;2022-12-01T01:33:24;29.42;;;12.65;;
29422;SDS011;16399;51.686;8.684;2022-12-01T01:36:26;30.25;;;11.83;;
29422;SDS011;16399;51.686;8.684;2022-12-01T01:39:28;27.45;;;11.60;;
29422;SDS011;16399;51.686;8.684;2022-12-01T01:42:31;29.57;;;13.10;;
29422;SDS011;16399;51.686;8.684;2022-12-01T01:45:33;31.60;;;11.90;;
29422;SDS011;16399;51.686;8.684;2022-12-01T01:48:35;31.12;;;12.28;;
29422;SDS011;16399;51.686;8.684;2022-12-01T01:51:44;32.23;;;12.88;;
29422;SDS011;16399;51.686;8.684;2022-12-01T01:54:50;24.90;;;12.13;;
29422;SDS011;16399;51.686;8.684;2022-12-01T01:57:54;31.75;;;13.03;;
29422;SDS011;16399;51.686;8.684;2022-12-01T02:00:57;25.90;;;11.08;;
29422;SDS011;16399;51.686;8.684;2022-12-01T02:03:59;27.80;;;12.63;;
29422;SDS011;16399;51.686;8.684;2022-12-01T02:07:03;29.80;;;12.95;;
29422;SDS011;16399;51.686;8.684;2022-12-01T02:10:08;30.97;;;12.97;;
29422;SDS011;16399;51.686;8.684;2022-12-01T02:16:22;31.57;;;12.10;;
29422;SDS011;16399;51.686;8.684;2022-12-01T02:19:43;30.57;;;12.05;;
29422;SDS011;16399;51.686;8.684;2022-12-01T02:30:06;29.40;;;12.13;;
29422;SDS011;16399;51.686;8.684;2022-12-01T02:36:31;30.75;;;11.53;;
29422;SDS011;16399;51.686;8.684;2022-12-01T02:39:48;26.10;;;12.18;;
29422;SDS011;16399;51.686;8.684;2022-12-01T02:46:23;25.88;;;12.30;;
29422;SDS011;16399;51.686;8.684;2022-12-01T02:49:29;35.25;;;12.85;;
29422;SDS011;16399;51.686;8.684;2022-12-01T02:52:35;31.75;;;13.15;;
29422;SDS011;16399;51.686;8.684;2022-12-01T02:55:54;33.28;;;12.65;;
29422;SDS011;16399;51.686;8.684;2022-12-01T02:58:53;28.20;;;11.15;;
29422;SDS011;16399;51.686;8.684;2022-12-01T03:12:01;26.35;;;12.03;;
29422;SDS011;16399;51.686;8.684;2022-12-01T03:15:19;29.48;;;11.97;;
29422;SDS011;16399;51.686;8.684;2022-12-01T03:21:36;33.53;;;12.68;;
29422;SDS011;16399;51.686;8.684;2022-12-01T03:24:44;32.35;;;12.98;;
29422;SDS011;16399;51.686;8.684;2022-12-01T03:27:48;25.27;;;11.78;;
29422;SDS011;16399;51.686;8.684;2022-12-01T03:30:56;31.80;;;12.90;;
29422;SDS011;16399;51.686;8.684;2022-12-01T03:34:06;28.83;;;12.47;;
29422;SDS011;16399;51.686;8.684;2022-12-01T03:37:10;26.50;;;11.73;;
29422;SDS011;16399;51.686;8.684;2022-12-01T03:40:15;29.65;;;12.75;;
29422;SDS011;16399;51.686;8.684;2022-12-01T03:43:20;32.50;;;13.03;;
29422;SDS011;16399;51.686;8.684;2022-12-01T03:46:37;45.08;;;16.00;;
29422;SDS011;16399;51.686;8.684;2022-12-01T03:49:40;44.15;;;18.20;;
29422;SDS011;16399;51.686;8.684;2022-12-01T03:56:00;53.45;;;20.02;;
29422;SDS011;16399;51.686;8.684;2022-12-01T03:59:04;53.98;;;20.30;;
29422;SDS011;16399;51.686;8.684;2022-12-01T04:02:08;54.15;;;20.85;;
29422;SDS011;16399;51.686;8.684;2022-12-01T04:05:11;50.78;;;19.77;;
29422;SDS011;16399;51.686;8.684;2022-12-01T04:08:13;52.88;;;21.77;;
29422;SDS011;16399;51.686;8.684;2022-12-01T04:11:15;50.25;;;21.55;;
29422;SDS011;16399;51.686;8.684;2022-12-01T04:14:35;54.03;;;20.75;;
29422;SDS011;16399;51.686;8.684;2022-12-01T04:17:38;51.20;;;20.60;;
29422;SDS011;16399;51.686;8.684;2022-12-01T04:20:44;50.85;;;21.17;;
29422;SDS011;16399;51.686;8.684;2022-12-01T04:23:47;54.45;;;20.92;;
29422;SDS011;16399;51.686;8.684;2022-12-01T04:27:01;52.50;;;21.33;;
29422;SDS011;16399;51.686;8.684;2022-12-01T04:30:03;54.13;;;21.60;;
29422;SDS011;16399;51.686;8.684;2022-12-01T04:33:06;56.10;;;22.62;;
29422;SDS011;16399;51.686;8.684;2022-12-01T04:36:09;58.85;;;23.73;;
29422;SDS011;16399;51.686;8.684;2022-12-01T04:39:11;60.67;;;23.77;;
29422;SDS011;16399;51.686;8.684;2022-12-01T04:42:13;51.40;;;22.48;;
29422;SDS011;16399;51.686;8.684;2022-12-01T04:45:16;63.55;;;23.52;;
29422;SDS011;16399;51.686;8.684;2022-12-01T04:48:18;53.83;;;21.70;;
29422;SDS011;16399;51.686;8.684;2022-12-01T04:51:20;58.87;;;23.18;;
29422;SDS011;16399;51.686;8.684;2022-12-01T04:54:23;64.20;;;25.30;;
29422;SDS011;16399;51.686;8.684;2022-12-01T04:57:26;58.90;;;23.73;;
29422;SDS011;16399;51.686;8.684;2022-12-01T05:00:28;60.52;;;24.82;;
29422;SDS011;16399;51.686;8.684;2022-12-01T05:03:30;69.58;;;26.07;;
29422;SDS011;16399;51.686;8.684;2022-12-01T05:06:34;62.33;;;26.65;;
29422;SDS011;16399;51.686;8.684;2022-12-01T05:09:37;70.52;;;26.73;;
29422;SDS011;16399;51.686;8.684;2022-12-01T05:12:39;61.00;;;25.35;;
29422;SDS011;16399;51.686;8.684;2022-12-01T05:15:42;63.85;;;26.60;;
29422;SDS011;16399;51.686;8.684;2022-12-01T05:18:51;68.12;;;26.37;;
29422;SDS011;16399;51.686;8.684;2022-12-01T05:22:12;68.62;;;26.73;;
29422;SDS011;16399;51.686;8.684;2022-12-01T05:25:14;65.22;;;27.75;;
29422;SDS011;16399;51.686;8.684;2022-12-01T05:28:17;64.42;;;27.67;;
29422;SDS011;16399;51.686;8.684;2022-12-01T05:31:20;65.62;;;27.00;;
29422;SDS011;16399;51.686;8.684;2022-12-01T05:34:22;67.95;;;27.07;;
29422;SDS011;16399;51.686;8.684;2022-12-01T05:37:24;68.05;;;28.38;;
29422;SDS011;16399;51.686;8.684;2022-12-01T05:40:28;69.23;;;28.30;;
29422;SDS011;16399;51.686;8.684;2022-12-01T05:43:31;69.10;;;28.02;;
29422;SDS011;16399;51.686;8.684;2022-12-01T05:46:33;65.35;;;28.42;;
29422;SDS011;16399;51.686;8.684;2022-12-01T05:49:35;72.40;;;29.40;;
29422;SDS011;16399;51.686;8.684;2022-12-01T05:52:37;63.45;;;28.70;;
29422;SDS011;16399;51.686;8.684;2022-12-01T05:55:40;76.80;;;29.95;;
29422;SDS011;16399;51.686;8.684;2022-12-01T05:58:42;68.07;;;29.05;;
29422;SDS011;16399;51.686;8.684;2022-12-01T06:01:44;75.12;;;30.88;;
29422;SDS011;16399;51.686;8.684;2022-12-01T06:04:47;83.07;;;32.55;;
29422;SDS011;16399;51.686;8.684;2022-12-01T06:07:49;71.02;;;30.45;;
29422;SDS011;16399;51.686;8.684;2022-12-01T06:10:51;67.32;;;29.27;;
29422;SDS011;16399;51.686;8.684;2022-12-01T06:13:53;74.17;;;31.62;;
29422;SDS011;16399;51.686;8.684;2022-12-01T06:16:56;76.22;;;31.95;;
29422;SDS011;16399;51.686;8.684;2022-12-01T06:19:58;73.20;;;30.68;;
29422;SDS011;16399;51.686;8.684;2022-12-01T06:23:00;74.95;;;29.67;;
29422;SDS011;16399;51.686;8.684;2022-12-01T06:26:03;74.70;;;31.23;;
29422;SDS011;16399;51.686;8.684;2022-12-01T06:29:05;74.67;;;30.60;;
29422;SDS011;16399;51.686;8.684;2022-12-01T06:32:07;79.10;;;33.15;;
29422;SDS011;16399;51.686;8.684;2022-12-01T06:35:10;79.40;;;31.52;;
29422;SDS011;16399;51.686;8.684;2022-12-01T06:38:12;80.57;;;32.95;;
29422;SDS011;16399;51.686;8.684;2022-12-01T06:41:14;79.70;;;32.40;;
29422;SDS011;16399;51.686;8.684;2022-12-01T06:44:17;75.85;;;32.45;;
29422;SDS011;16399;51.686;8.684;2022-12-01T06:47:19;71.10;;;31.57;;
29422;SDS011;16399;51.686;8.684;2022-12-01T06:50:21;71.07;;;30.10;;
29422;SDS011;16399;51.686;8.684;2022-12-01T06:53:25;82.85;;;33.83;;
29422;SDS011;16399;51.686;8.684;2022-12-01T06:56:28;80.10;;;31.57;;
29422;SDS011;16399;51.686;8.684;2022-12-01T06:59:30;75.57;;;32.28;;
29422;SDS011;16399;51.686;8.684;2022-12-01T07:02:32;76.42;;;31.33;;
29422;SDS011;16399;51.686;8.684;2022-12-01T07:05:35;67.85;;;30.60;;
29422;SDS011;16399;51.686;8.684;2022-12-01T07:08:38;73.12;;;31.30;;
29422;SDS011;16399;51.686;8.684;2022-12-01T07:11:40;76.70;;;32.23;;
29422;SDS011;16399;51.686;8.684;2022-12-01T07:14:42;71.92;;;33.10;;
29422;SDS011;16399;51.686;8.684;2022-12-01T07:17:45;79.92;;;32.10;;
29422;SDS011;16399;51.686;8.684;2022-12-01T07:20:48;76.75;;;33.42;;
29422;SDS011;16399;51.686;8.684;2022-12-01T07:23:50;72.85;;;31.57;;
29422;SDS011;16399;51.686;8.684;2022-12-01T07:26:52;74.97;;;31.52;;
29422;SDS011;16399;51.686;8.684;2022-12-01T07:29:55;70.28;;;32.53;;
29422;SDS011;16399;51.686;8.684;2022-12-01T07:32:57;76.62;;;32.80;;
29422;SDS011;16399;51.686;8.684;2022-12-01T07:36:00;80.03;;;34.45;;
29422;SDS011;16399;51.686;8.684;2022-12-01T07:39:04;68.92;;;31.30;;
29422;SDS011;16399;51.686;8.684;2022-12-01T07:42:08;72.37;;;32.05;;
29422;SDS011;16399;51.686;8.684;2022-12-01T07:45:10;74.05;;;31.17;;
29422;SDS011;16399;51.686;8.684;2022-12-01T07:48:12;78.75;;;34.23;;
29422;SDS011;16399;51.686;8.684;2022-12-01T07:51:15;75.03;;;32.75;;
29422;SDS011;16399;51.686;8.684;2022-12-01T07:54:17;80.53;;;32.33;;
29422;SDS011;16399;51.686;8.684;2022-12-01T07:57:20;79.35;;;32.83;;
29422;SDS011;16399;51.686;8.684;2022-12-01T08:00:23;77.53;;;32.95;;
29422;SDS011;16399;51.686;8.684;2022-12-01T08:03:25;76.62;;;33.28;;
29422;SDS011;16399;51.686;8.684;2022-12-01T08:06:28;71.00;;;29.45;;
29422;SDS011;16399;51.686;8.684;2022-12-01T08:09:30;69.40;;;30.20;;
29422;SDS011;16399;51.686;8.684;2022-12-01T08:12:32;78.17;;;31.85;;
29422;SDS011;16399;51.686;8.684;2022-12-01T08:15:35;78.78;;;32.35;;
29422;SDS011;16399;51.686;8.684;2022-12-01T08:18:38;76.72;;;32.50;;
29422;SDS011;16399;51.686;8.684;2022-12-01T08:21:41;76.67;;;32.13;;
29422;SDS011;16399;51.686;8.684;2022-12-01T08:24:43;78.62;;;32.83;;
29422;SDS011;16399;51.686;8.684;2022-12-01T08:27:45;77.00;;;32.55;;
29422;SDS011;16399;51.686;8.684;2022-12-01T08:30:48;85.40;;;32.48;;
29422;SDS011;16399;51.686;8.684;2022-12-01T08:33:50;75.75;;;32.33;;
29422;SDS011;16399;51.686;8.684;2022-12-01T08:36:53;78.67;;;33.50;;
29422;SDS011;16399;51.686;8.684;2022-12-01T08:39:55;82.25;;;33.35;;
29422;SDS011;16399;51.686;8.684;2022-12-01T08:42:58;87.35;;;34.48;;
29422;SDS011;16399;51.686;8.684;2022-12-01T08:46:00;80.42;;;33.60;;
29422;SDS011;16399;51.686;8.684;2022-12-01T08:49:03;89.45;;;33.00;;
29422;SDS011;16399;51.686;8.684;2022-12-01T08:52:06;83.35;;;33.25;;
29422;SDS011;16399;51.686;8.684;2022-12-01T08:55:08;87.53;;;34.35;;
29422;SDS011;16399;51.686;8.684;2022-12-01T08:58:11;86.75;;;33.38;;
29422;SDS011;16399;51.686;8.684;2022-12-01T09:01:14;81.17;;;33.50;;
29422;SDS011;16399;51.686;8.684;2022-12-01T09:04:21;82.47;;;33.35;;
29422;SDS011;16399;51.686;8.684;2022-12-01T09:07:25;80.87;;;34.23;;
29422;SDS011;16399;51.686;8.684;2022-12-01T09:10:27;81.55;;;31.93;;
29422;SDS011;16399;51.686;8.684;2022-12-01T09:13:30;85.42;;;33.73;;
29422;SDS011;16399;51.686;8.684;2022-12-01T09:16:33;80.37;;;32.67;;
29422;SDS011;16399;51.686;8.684;2022-12-01T09:19:36;84.32;;;33.55;;
29422;SDS011;16399;51.686;8.684;2022-12-01T09:22:39;77.78;;;32.75;;
29422;SDS011;16399;51.686;8.684;2022-12-01T09:25:41;86.25;;;34.70;;
29422;SDS011;16399;51.686;8.684;2022-12-01T09:28:52;79.20;;;33.48;;
29422;SDS011;16399;51.686;8.684;2022-12-01T09:31:48;77.80;;;33.18;;
29422;SDS011;16399;51.686;8.684;2022-12-01T09:34:51;75.87;;;30.97;;
29422;SDS011;16399;51.686;8.684;2022-12-01T09:37:53;73.92;;;31.60;;
29422;SDS011;16399;51.686;8.684;2022-12-01T09:40:56;76.25;;;31.35;;
29422;SDS011;16399;51.686;8.684;2022-12-01T09:47:27;77.32;;;31.37;;
29422;SDS011;16399;51.686;8.684;2022-12-01T09:50:33;75.00;;;32.63;;
29422;SDS011;16399;51.686;8.684;2022-12-01T09:53:36;81.85;;;34.18;;
29422;SDS011;16399;51.686;8.684;2022-12-01T09:56:43;74.10;;;31.87;;
29422;SDS011;16399;51.686;8.684;2022-12-01T09:59:48;72.82;;;33.18;;
29422;SDS011;16399;51.686;8.684;2022-12-01T10:06:02;71.72;;;32.03;;
29422;SDS011;16399;51.686;8.684;2022-12-01T10:09:26;64.97;;;29.15;;
29422;SDS011;16399;51.686;8.684;2022-12-01T10:12:36;67.87;;;30.12;;
29422;SDS011;16399;51.686;8.684;2022-12-01T10:19:10;63.42;;;28.32;;
29422;SDS011;16399;51.686;8.684;2022-12-01T10:22:27;63.55;;;29.25;;
29422;SDS011;16399;51.686;8.684;2022-12-01T10:25:57;58.52;;;27.80;;
29422;SDS011;16399;51.686;8.684;2022-12-01T10:29:05;64.12;;;27.75;;
29422;SDS011;16399;51.686;8.684;2022-12-01T10:35:52;62.17;;;27.35;;
29422;SDS011;16399;51.686;8.684;2022-12-01T10:38:54;63.80;;;28.38;;
29422;SDS011;16399;51.686;8.684;2022-12-01T10:42:01;60.83;;;26.12;;
29422;SDS011;16399;51.686;8.684;2022-12-01T10:45:21;62.55;;;27.58;;
29422;SDS011;16399;51.686;8.684;2022-12-01T10:48:27;55.75;;;24.40;;
29422;SDS011;16399;51.686;8.684;2022-12-01T10:51:30;61.68;;;27.07;;
29422;SDS011;16399;51.686;8.684;2022-12-01T10:54:35;62.83;;;27.75;;
29422;SDS011;16399;51.686;8.684;2022-12-01T10:57:39;60.88;;;28.32;;
29422;SDS011;16399;51.686;8.684;2022-12-01T11:00:53;62.20;;;27.02;;
29422;SDS011;16399;51.686;8.684;2022-12-01T11:03:51;64.97;;;26.40;;
29422;SDS011;16399;51.686;8.684;2022-12-01T11:06:56;62.80;;;26.62;;
29422;SDS011;16399;51.686;8.684;2022-12-01T11:10:03;61.77;;;27.13;;
29422;SDS011;16399;51.686;8.684;2022-12-01T11:13:23;61.68;;;28.40;;
29422;SDS011;16399;51.686;8.684;2022-12-01T11:16:44;66.35;;;26.50;;
29422;SDS011;16399;51.686;8.684;2022-12-01T11:19:47;54.95;;;24.50;;
29422;SDS011;16399;51.686;8.684;2022-12-01T11:22:50;63.52;;;28.85;;
29422;SDS011;16399;51.686;8.684;2022-12-01T11:29:02;64.62;;;27.10;;
29422;SDS011;16399;51.686;8.684;2022-12-01T11:32:14;69.82;;;27.37;;
29422;SDS011;16399;51.686;8.684;2022-12-01T11:35:30;68.92;;;27.75;;
29422;SDS011;16399;51.686;8.684;2022-12-01T11:38:34;62.10;;;27.32;;
29422;SDS011;16399;51.686;8.684;2022-12-01T11:41:37;67.70;;;26.75;;
29422;SDS011;16399;51.686;8.684;2022-12-01T11:44:49;65.20;;;26.85;;
29422;SDS011;16399;51.686;8.684;2022-12-01T11:51:37;64.85;;;27.02;;
29422;SDS011;16399;51.686;8.684;2022-12-01T11:54:27;60.10;;;26.12;;
29422;SDS011;16399;51.686;8.684;2022-12-01T12:00:33;58.92;;;23.50;;
29422;SDS011;16399;51.686;8.684;2022-12-01T12:04:25;59.65;;;22.87;;
29422;SDS011;16399;51.686;8.684;2022-12-01T12:07:01;63.58;;;25.43;;
29422;SDS011;16399;51.686;8.684;2022-12-01T12:10:28;60.10;;;23.70;;
29422;SDS011;16399;51.686;8.684;2022-12-01T12:20:28;60.12;;;24.63;;
29422;SDS011;16399;51.686;8.684;2022-12-01T12:23:47;57.73;;;24.98;;
29422;SDS011;16399;51.686;8.684;2022-12-01T12:26:56;62.27;;;24.67;;
29422;SDS011;16399;51.686;8.684;2022-12-01T12:30:28;61.10;;;26.25;;
29422;SDS011;16399;51.686;8.684;2022-12-01T12:36:46;64.15;;;24.30;;
29422;SDS011;16399;51.686;8.684;2022-12-01T12:43:26;57.45;;;24.12;;
29422;SDS011;16399;51.686;8.684;2022-12-01T12:46:48;59.63;;;23.38;;
29422;SDS011;16399;51.686;8.684;2022-12-01T12:50:05;57.43;;;22.07;;
29422;SDS011;16399;51.686;8.684;2022-12-01T12:53:23;81.60;;;33.08;;
29422;SDS011;16399;51.686;8.684;2022-12-01T12:56:28;60.63;;;24.47;;
29422;SDS011;16399;51.686;8.684;2022-12-01T12:59:36;62.48;;;24.02;;
29422;SDS011;16399;51.686;8.684;2022-12-01T13:02:43;55.63;;;23.02;;
29422;SDS011;16399;51.686;8.684;2022-12-01T13:05:48;66.12;;;24.50;;
29422;SDS011;16399;51.686;8.684;2022-12-01T13:09:13;175.62;;;75.78;;
29422;SDS011;16399;51.686;8.684;2022-12-01T13:12:25;63.98;;;24.18;;
29422;SDS011;16399;51.686;8.684;2022-12-01T13:15:31;65.90;;;24.35;;
29422;SDS011;16399;51.686;8.684;2022-12-01T13:18:49;60.48;;;24.90;;
29422;SDS011;16399;51.686;8.684;2022-12-01T13:21:53;59.73;;;23.85;;
29422;SDS011;16399;51.686;8.684;2022-12-01T13:24:56;62.10;;;25.40;;
29422;SDS011;16399;51.686;8.684;2022-12-01T13:27:59;65.20;;;24.10;;
29422;SDS011;16399;51.686;8.684;2022-12-01T13:34:17;72.55;;;24.32;;
29422;SDS011;16399;51.686;8.684;2022-12-01T13:37:32;78.05;;;28.30;;
29422;SDS011;16399;51.686;8.684;2022-12-01T13:40:36;68.25;;;25.17;;
29422;SDS011;16399;51.686;8.684;2022-12-01T13:43:52;72.65;;;26.87;;
29422;SDS011;16399;51.686;8.684;2022-12-01T13:56:59;67.47;;;25.52;;
29422;SDS011;16399;51.686;8.684;2022-12-01T14:00:05;61.10;;;24.82;;
29422;SDS011;16399;51.686;8.684;2022-12-01T14:06:20;62.20;;;23.70;;
29422;SDS011;16399;51.686;8.684;2022-12-01T14:09:34;60.60;;;23.83;;
29422;SDS011;16399;51.686;8.684;2022-12-01T14:12:37;65.10;;;25.15;;
29422;SDS011;16399;51.686;8.684;2022-12-01T14:15:41;67.87;;;25.70;;
29422;SDS011;16399;51.686;8.684;2022-12-01T14:18:48;56.18;;;22.15;;
29422;SDS011;16399;51.686;8.684;2022-12-01T14:21:52;55.45;;;21.80;;
29422;SDS011;16399;51.686;8.684;2022-12-01T14:24:55;57.67;;;22.30;;
29422;SDS011;16399;51.686;8.684;2022-12-01T14:28:02;57.23;;;23.10;;
29422;SDS011;16399;51.686;8.684;2022-12-01T14:31:02;64.90;;;23.77;;
29422;SDS011;16399;51.686;8.684;2022-12-01T14:34:09;70.60;;;25.65;;
29422;SDS011;16399;51.686;8.684;2022-12-01T14:37:18;59.13;;;23.40;;
29422;SDS011;16399;51.686;8.684;2022-12-01T14:40:24;66.10;;;25.05;;
29422;SDS011;16399;51.686;8.684;2022-12-01T14:43:28;66.15;;;25.25;;
29422;SDS011;16399;51.686;8.684;2022-12-01T14:46:42;74.40;;;26.48;;
29422;SDS011;16399;51.686;8.684;2022-12-01T14:53:16;49.67;;;19.45;;
29422;SDS011;16399;51.686;8.684;2022-12-01T14:56:19;59.35;;;22.48;;
29422;SDS011;16399;51.686;8.684;2022-12-01T14:59:25;92.30;;;36.33;;
29422;SDS011;16399;51.686;8.684;2022-12-01T15:02:27;87.22;;;32.53;;
29422;SDS011;16399;51.686;8.684;2022-12-01T15:05:30;78.45;;;33.50;;
29422;SDS011;16399;51.686;8.684;2022-12-01T15:08:36;62.67;;;25.25;;
29422;SDS011;16399;51.686;8.684;2022-12-01T15:11:50;68.92;;;28.38;;
29422;SDS011;16399;51.686;8.684;2022-12-01T15:14:51;65.87;;;25.52;;
29422;SDS011;16399;51.686;8.684;2022-12-01T15:17:54;46.65;;;17.40;;
29422;SDS011;16399;51.686;8.684;2022-12-01T15:24:22;46.23;;;17.92;;
29422;SDS011;16399;51.686;8.684;2022-12-01T15:27:30;42.55;;;17.45;;
29422;SDS011;16399;51.686;8.684;2022-12-01T15:30:33;44.63;;;18.35;;
29422;SDS011;16399;51.686;8.684;2022-12-01T15:33:35;48.02;;;19.02;;
29422;SDS011;16399;51.686;8.684;2022-12-01T15:36:40;40.63;;;17.98;;
29422;SDS011;16399;51.686;8.684;2022-12-01T15:39:51;48.02;;;20.90;;
29422;SDS011;16399;51.686;8.684;2022-12-01T15:43:04;51.55;;;19.23;;
29422;SDS011;16399;51.686;8.684;2022-12-01T15:46:11;46.18;;;17.92;;
29422;SDS011;16399;51.686;8.684;2022-12-01T15:49:19;43.85;;;17.45;;
29422;SDS011;16399;51.686;8.684;2022-12-01T15:52:29;49.33;;;18.20;;
29422;SDS011;16399;51.686;8.684;2022-12-01T15:55:32;46.18;;;18.17;;
29422;SDS011;16399;51.686;8.684;2022-12-01T15:58:41;48.40;;;17.90;;
29422;SDS011;16399;51.686;8.684;2022-12-01T16:01:45;44.25;;;17.40;;
29422;SDS011;16399;51.686;8.684;2022-12-01T16:04:47;42.43;;;17.57;;
29422;SDS011;16399;51.686;8.684;2022-12-01T16:07:51;42.53;;;16.65;;
29422;SDS011;16399;51.686;8.684;2022-12-01T16:11:18;45.15;;;18.07;;
29422;SDS011;16399;51.686;8.684;2022-12-01T16:17:24;41.25;;;16.27;;
29422;SDS011;16399;51.686;8.684;2022-12-01T16:20:32;44.67;;;16.75;;
29422;SDS011;16399;51.686;8.684;2022-12-01T16:23:36;39.15;;;16.40;;
29422;SDS011;16399;51.686;8.684;2022-12-01T16:26:44;39.85;;;16.73;;
29422;SDS011;16399;51.686;8.684;2022-12-01T16:33:12;45.43;;;18.10;;
29422;SDS011;16399;51.686;8.684;2022-12-01T16:36:09;38.17;;;16.75;;
29422;SDS011;16399;51.686;8.684;2022-12-01T16:39:13;43.43;;;17.97;;
29422;SDS011;16399;51.686;8.684;2022-12-01T16:42:16;40.40;;;17.42;;
29422;SDS011;16399;51.686;8.684;2022-12-01T16:45:20;39.88;;;17.20;;
29422;SDS011;16399;51.686;8.684;2022-12-01T16:48:24;42.05;;;17.45;;
29422;SDS011;16399;51.686;8.684;2022-12-01T16:51:27;37.55;;;16.50;;
29422;SDS011;16399;51.686;8.684;2022-12-01T16:54:29;39.58;;;15.98;;
29422;SDS011;16399;51.686;8.684;2022-12-01T16:57:31;36.88;;;17.20;;
29422;SDS011;16399;51.686;8.684;2022-12-01T17:00:34;38.55;;;16.95;;
29422;SDS011;16399;51.686;8.684;2022-12-01T17:03:36;41.85;;;19.20;;
29422;SDS011;16399;51.686;8.684;2022-12-01T17:06:39;42.25;;;18.48;;
29422;SDS011;16399;51.686;8.684;2022-12-01T17:09:41;35.68;;;15.95;;
29422;SDS011;16399;51.686;8.684;2022-12-01T17:12:43;41.33;;;18.82;;
29422;SDS011;16399;51.686;8.684;2022-12-01T17:15:47;36.40;;;15.58;;
29422;SDS011;16399;51.686;8.684;2022-12-01T17:18:50;38.35;;;16.23;;
29422;SDS011;16399;51.686;8.684;2022-12-01T17:21:52;35.68;;;16.82;;
29422;SDS011;16399;51.686;8.684;2022-12-01T17:24:56;36.77;;;16.20;;
29422;SDS011;16399;51.686;8.684;2022-12-01T17:27:59;43.87;;;17.92;;
29422;SDS011;16399;51.686;8.684;2022-12-01T17:31:01;38.50;;;17.67;;
29422;SDS011;16399;51.686;8.684;2022-12-01T17:34:04;39.05;;;16.65;;
29422;SDS011;16399;51.686;8.684;2022-12-01T17:37:07;41.53;;;18.87;;
29422;SDS011;16399;51.686;8.684;2022-12-01T17:40:10;49.08;;;19.35;;
29422;SDS011;16399;51.686;8.684;2022-12-01T17:43:17;45.38;;;19.00;;
29422;SDS011;16399;51.686;8.684;2022-12-01T17:46:20;41.13;;;16.50;;
29422;SDS011;16399;51.686;8.684;2022-12-01T17:49:22;54.55;;;20.50;;
29422;SDS011;16399;51.686;8.684;2022-12-01T17:52:25;50.58;;;19.95;;
29422;SDS011;16399;51.686;8.684;2022-12-01T17:55:28;40.52;;;18.80;;
29422;SDS011;16399;51.686;8.684;2022-12-01T17:58:30;44.75;;;18.55;;
29422;SDS011;16399;51.686;8.684;2022-12-01T18:01:33;48.38;;;19.62;;
29422;SDS011;16399;51.686;8.684;2022-12-01T18:04:35;49.95;;;20.40;;
29422;SDS011;16399;51.686;8.684;2022-12-01T18:07:38;57.40;;;22.87;;
29422;SDS011;16399;51.686;8.684;2022-12-01T18:10:40;52.05;;;21.30;;
29422;SDS011;16399;51.686;8.684;2022-12-01T18:13:43;47.67;;;20.52;;
29422;SDS011;16399;51.686;8.684;2022-12-01T18:19:49;90.97;;;31.55;;
29422;SDS011;16399;51.686;8.684;2022-12-01T18:22:51;54.27;;;20.92;;
29422;SDS011;16399;51.686;8.684;2022-12-01T18:25:53;62.27;;;27.02;;
29422;SDS011;16399;51.686;8.684;2022-12-01T18:28:59;50.20;;;20.62;;
29422;SDS011;16399;51.686;8.684;2022-12-01T18:32:04;56.15;;;21.45;;
29422;SDS011;16399;51.686;8.684;2022-12-01T18:35:06;49.27;;;19.25;;
29422;SDS011;16399;51.686;8.684;2022-12-01T18:38:09;60.98;;;23.10;;
29422;SDS011;16399;51.686;8.684;2022-12-01T18:41:12;44.85;;;19.00;;
29422;SDS011;16399;51.686;8.684;2022-12-01T18:44:15;45.33;;;18.90;;
29422;SDS011;16399;51.686;8.684;2022-12-01T18:47:20;50.48;;;20.75;;
29422;SDS011;16399;51.686;8.684;2022-12-01T18:50:23;47.05;;;19.35;;
29422;SDS011;16399;51.686;8.684;2022-12-01T18:53:26;57.55;;;21.27;;
29422;SDS011;16399;51.686;8.684;2022-12-01T18:56:28;47.93;;;20.17;;
29422;SDS011;16399;51.686;8.684;2022-12-01T18:59:31;47.30;;;19.00;;
29422;SDS011;16399;51.686;8.684;2022-12-01T19:02:33;47.27;;;18.57;;
29422;SDS011;16399;51.686;8.684;2022-12-01T19:05:36;44.50;;;18.07;;
29422;SDS011;16399;51.686;8.684;2022-12-01T19:08:39;43.15;;;17.50;;
29422;SDS011;16399;51.686;8.684;2022-12-01T19:11:42;44.30;;;17.92;;
29422;SDS011;16399;51.686;8.684;2022-12-01T19:14:44;48.25;;;20.12;;
29422;SDS011;16399;51.686;8.684;2022-12-01T19:17:46;46.58;;;19.02;;
29422;SDS011;16399;51.686;8.684;2022-12-01T19:20:49;41.63;;;17.60;;
29422;SDS011;16399;51.686;8.684;2022-12-01T19:23:51;42.73;;;18.60;;
29422;SDS011;16399;51.686;8.684;2022-12-01T19:26:54;44.88;;;19.37;;
29422;SDS011;16399;51.686;8.684;2022-12-01T19:29:56;47.30;;;18.70;;
29422;SDS011;16399;51.686;8.684;2022-12-01T19:32:58;39.38;;;18.00;;
29422;SDS011;16399;51.686;8.684;2022-12-01T19:36:10;45.75;;;18.15;;
29422;SDS011;16399;51.686;8.684;2022-12-01T19:39:18;42.53;;;17.62;;
29422;SDS011;16399;51.686;8.684;2022-12-01T19:42:20;40.35;;;16.85;;
29422;SDS011;16399;51.686;8.684;2022-12-01T19:45:23;47.43;;;19.12;;